createdAt,value
2023-04-17T00:00:50.190Z,100.00
2023-04-17T00:03:18.046Z,100.00
2023-04-17T00:05:46.016Z,100.00
2023-04-17T00:08:15.324Z,100.00
2023-04-17T00:10:46.983Z,100.00
2023-04-17T00:13:20.980Z,100.00
2023-04-17T00:15:48.662Z,100.00
2023-04-17T00:18:16.329Z,100.00
2023-04-17T00:20:44.397Z,100.00
2023-04-17T00:23:12.358Z,100.00
2023-04-17T00:25:40.049Z,100.00
2023-04-17T00:28:07.870Z,100.00
2023-04-17T00:30:35.543Z,100.00
2023-04-17T00:33:03.353Z,100.00
2023-04-17T00:35:31.126Z,100.00
2023-04-17T00:37:58.704Z,100.00
2023-04-17T00:40:26.230Z,100.00
2023-04-17T00:42:56.008Z,100.00
2023-04-17T00:45:23.870Z,100.00
2023-04-17T00:47:51.739Z,100.00
2023-04-17T00:50:19.330Z,100.00
2023-04-17T00:52:47.894Z,100.00
2023-04-17T00:55:15.483Z,100.00
2023-04-17T00:57:44.477Z,100.00
2023-04-17T01:00:12.485Z,100.00
2023-04-17T01:02:40.946Z,100.00
2023-04-17T01:05:08.927Z,100.00
2023-04-17T01:07:36.604Z,100.00
2023-04-17T01:10:04.893Z,100.00
2023-04-17T01:12:33.131Z,100.00
2023-04-17T01:15:00.767Z,100.00
2023-04-17T01:17:30.378Z,100.00
2023-04-17T01:19:58.294Z,100.00
2023-04-17T01:22:26.274Z,100.00
2023-04-17T01:24:56.258Z,100.00
2023-04-17T01:27:25.822Z,100.00
2023-04-17T01:29:53.317Z,100.00
2023-04-17T01:32:21.370Z,100.00
2023-04-17T01:34:49.377Z,100.00
2023-04-17T01:37:16.881Z,100.00
2023-04-17T01:39:44.435Z,100.00
2023-04-17T01:42:12.156Z,100.00
2023-04-17T01:44:39.790Z,100.00
2023-04-17T01:47:07.716Z,100.00
2023-04-17T01:49:35.449Z,100.00
2023-04-17T01:52:03.011Z,100.00
2023-04-17T01:54:31.001Z,100.00
2023-04-17T01:56:58.596Z,100.00
2023-04-17T01:59:26.815Z,100.00
2023-04-17T02:01:54.902Z,100.00
2023-04-17T02:04:22.458Z,100.00
2023-04-17T02:06:50.355Z,100.00
2023-04-17T02:09:18.605Z,100.00
2023-04-17T02:11:46.338Z,100.00
2023-04-17T02:14:13.751Z,100.00
2023-04-17T02:16:45.583Z,100.00
2023-04-17T02:19:13.478Z,100.00
2023-04-17T02:21:41.961Z,100.00
2023-04-17T02:24:09.495Z,100.00
2023-04-17T02:26:37.309Z,100.00
2023-04-17T02:29:05.928Z,100.00
2023-04-17T02:31:33.560Z,100.00
2023-04-17T02:34:01.068Z,100.00
2023-04-17T02:36:28.642Z,100.00
2023-04-17T02:38:56.627Z,100.00
2023-04-17T02:41:24.140Z,100.00
2023-04-17T02:43:51.606Z,100.00
2023-04-17T02:46:19.131Z,100.00
2023-04-17T02:48:46.595Z,100.00
2023-04-17T02:51:14.030Z,100.00
2023-04-17T02:53:41.760Z,100.00
2023-04-17T02:56:09.353Z,100.00
2023-04-17T02:58:37.330Z,100.00
2023-04-17T03:01:06.395Z,100.00
2023-04-17T03:03:38.644Z,100.00
2023-04-17T03:06:09.283Z,100.00
2023-04-17T03:08:38.185Z,100.00
2023-04-17T03:11:05.961Z,100.00
2023-04-17T03:13:36.849Z,100.00
2023-04-17T03:16:05.134Z,100.00
2023-04-17T03:18:34.988Z,100.00
2023-04-17T03:21:02.787Z,100.00
2023-04-17T03:23:30.474Z,100.00
2023-04-17T03:25:58.378Z,100.00
2023-04-17T03:28:26.817Z,100.00
2023-04-17T03:30:57.691Z,100.00
2023-04-17T03:33:25.616Z,100.00
2023-04-17T03:35:53.944Z,100.00
2023-04-17T03:38:21.823Z,100.00
2023-04-17T03:40:49.369Z,100.00
2023-04-17T03:43:16.755Z,100.00
2023-04-17T03:45:46.428Z,100.00
2023-04-17T03:48:14.146Z,100.00
2023-04-17T03:50:42.141Z,100.00
2023-04-17T03:53:09.628Z,100.00
2023-04-17T03:55:37.800Z,100.00
2023-04-17T03:58:05.536Z,100.00
2023-04-17T04:00:33.651Z,100.00
2023-04-17T04:03:03.993Z,100.00
2023-04-17T04:05:37.908Z,100.00
2023-04-17T04:08:05.395Z,100.00
2023-04-17T04:10:37.766Z,100.00
2023-04-17T04:13:05.631Z,100.00
2023-04-17T04:15:32.907Z,100.00
2023-04-17T04:18:02.786Z,100.00
2023-04-17T04:20:31.611Z,100.00
2023-04-17T04:23:09.163Z,100.00
2023-04-17T04:25:41.568Z,100.00
2023-04-17T04:28:23.108Z,100.00
2023-04-17T04:30:51.105Z,100.00
2023-04-17T04:33:20.012Z,100.00
2023-04-17T04:35:47.880Z,100.00
2023-04-17T04:38:16.808Z,100.00
2023-04-17T04:40:51.854Z,100.00
2023-04-17T04:43:22.295Z,100.00
2023-04-17T04:45:53.031Z,100.00
2023-04-17T04:48:20.617Z,100.00
2023-04-17T04:50:47.895Z,100.00
2023-04-17T04:53:15.537Z,100.00
2023-04-17T04:55:47.643Z,100.00
2023-04-17T04:58:15.096Z,100.00
2023-04-17T05:00:43.415Z,100.00
2023-04-17T05:03:13.594Z,100.00
2023-04-17T05:05:43.048Z,100.00
2023-04-17T05:08:12.174Z,100.00
2023-04-17T05:10:39.947Z,100.00
2023-04-17T05:13:08.185Z,100.00
2023-04-17T05:15:36.013Z,100.00
2023-04-17T05:18:04.136Z,100.00
2023-04-17T05:20:33.278Z,100.00
2023-04-17T05:23:00.640Z,100.00
2023-04-17T05:25:27.960Z,100.00
2023-04-17T05:27:55.942Z,100.00
2023-04-17T05:30:23.486Z,100.00
2023-04-17T05:32:55.729Z,100.00
2023-04-17T05:35:31.975Z,100.00
2023-04-17T05:37:59.922Z,100.00
2023-04-17T05:40:27.177Z,100.00
2023-04-17T05:42:55.377Z,100.00
2023-04-17T05:45:24.947Z,100.00
2023-04-17T05:47:53.096Z,100.00
2023-04-17T05:50:21.178Z,100.00
2023-04-17T05:52:48.747Z,100.00
2023-04-17T05:55:16.657Z,99.18
2023-04-17T05:57:44.192Z,97.91
2023-04-17T06:00:12.698Z,96.59
2023-04-17T06:02:43.070Z,95.90
2023-04-17T06:05:14.356Z,93.09
2023-04-17T06:07:42.554Z,91.95
2023-04-17T06:10:10.126Z,92.16
2023-04-17T06:12:38.112Z,92.59
2023-04-17T06:15:09.057Z,93.44
2023-04-17T06:17:37.360Z,94.80
2023-04-17T06:20:07.959Z,94.99
2023-04-17T06:22:35.850Z,93.90
2023-04-17T06:25:03.368Z,93.62
2023-04-17T06:27:31.727Z,94.21
2023-04-17T06:29:59.187Z,94.26
2023-04-17T06:32:26.972Z,92.19
2023-04-17T06:34:59.584Z,91.88
2023-04-17T06:37:47.354Z,91.09
2023-04-17T06:40:15.356Z,89.01
2023-04-17T06:42:42.816Z,87.38
2023-04-17T06:45:13.322Z,85.96
2023-04-17T06:47:42.180Z,84.30
2023-04-17T06:50:09.774Z,83.14
2023-04-17T06:52:37.348Z,80.56
2023-04-17T06:55:05.034Z,79.47
2023-04-17T06:57:33.710Z,79.86
2023-04-17T07:00:01.041Z,79.54
2023-04-17T07:02:28.743Z,77.78
2023-04-17T07:04:56.279Z,76.12
2023-04-17T07:07:23.602Z,76.13
2023-04-17T07:09:51.123Z,75.29
2023-04-17T07:12:18.590Z,74.72
2023-04-17T07:14:45.926Z,75.26
2023-04-17T07:17:13.592Z,76.93
2023-04-17T07:19:40.810Z,78.71
2023-04-17T07:22:09.962Z,78.37
2023-04-17T07:24:37.284Z,77.81
2023-04-17T07:27:04.846Z,79.05
2023-04-17T07:29:32.377Z,80.02
2023-04-17T07:31:59.591Z,80.03
2023-04-17T07:34:30.725Z,79.43
2023-04-17T07:36:58.020Z,79.40
2023-04-17T07:39:28.063Z,79.80
2023-04-17T07:41:55.980Z,79.95
2023-04-17T07:44:23.448Z,78.23
2023-04-17T07:46:50.857Z,77.73
2023-04-17T07:49:18.493Z,76.32
2023-04-17T07:51:46.477Z,76.85
2023-04-17T07:54:13.803Z,77.08
2023-04-17T07:56:40.985Z,77.61
2023-04-17T07:59:09.256Z,78.59
2023-04-17T08:01:37.479Z,78.82
2023-04-17T08:04:05.177Z,77.92
2023-04-17T08:06:33.773Z,77.81
2023-04-17T08:09:02.108Z,77.02
2023-04-17T08:11:29.746Z,76.04
2023-04-17T08:13:57.182Z,76.65
2023-04-17T08:16:24.677Z,76.80
2023-04-17T08:18:51.884Z,75.89
2023-04-17T08:21:19.217Z,72.97
2023-04-17T08:23:47.112Z,72.07
2023-04-17T08:26:14.298Z,71.68
2023-04-17T08:28:41.483Z,72.49
2023-04-17T08:31:10.214Z,73.08
2023-04-17T08:33:37.468Z,72.77
2023-04-17T08:36:06.545Z,72.13
2023-04-17T08:41:23.553Z,71.10
2023-04-17T08:43:51.087Z,70.03
2023-04-17T08:46:21.044Z,70.74
2023-04-17T08:48:48.986Z,68.77
2023-04-17T08:51:17.464Z,68.57
2023-04-17T08:53:44.659Z,65.70
2023-04-17T08:56:11.807Z,65.03
2023-04-17T08:58:39.131Z,65.88
2023-04-17T09:01:10.812Z,65.86
2023-04-17T09:03:45.448Z,66.56
2023-04-17T09:06:13.369Z,64.35
2023-04-17T09:09:07.704Z,62.96
2023-04-17T09:11:35.533Z,63.57
2023-04-17T09:14:02.726Z,63.06
2023-04-17T09:16:32.280Z,63.68
2023-04-17T09:19:06.673Z,64.18
2023-04-17T09:21:34.710Z,64.70
2023-04-17T09:24:02.891Z,65.73
2023-04-17T09:26:31.327Z,66.49
2023-04-17T09:29:07.453Z,66.25
2023-04-17T09:31:34.784Z,65.04
2023-04-17T09:34:02.914Z,63.94
2023-04-17T09:36:31.049Z,64.08
2023-04-17T09:39:00.522Z,64.50
2023-04-17T09:41:38.845Z,64.26
2023-04-17T09:44:06.424Z,64.22
2023-04-17T09:46:37.767Z,62.48
2023-04-17T09:49:15.338Z,61.93
2023-04-17T09:51:42.682Z,62.80
2023-04-17T09:54:11.348Z,62.21
2023-04-17T09:56:39.620Z,61.83
2023-04-17T09:59:07.119Z,61.55
2023-04-17T10:01:35.116Z,60.90
2023-04-17T10:04:03.270Z,60.10
2023-04-17T10:06:31.089Z,61.01
2023-04-17T10:08:58.372Z,61.55
2023-04-17T10:11:26.224Z,61.56
2023-04-17T10:13:59.754Z,61.75
2023-04-17T10:16:37.139Z,62.79
2023-04-17T10:19:23.654Z,62.93
2023-04-17T10:22:11.487Z,63.17
2023-04-17T10:24:39.075Z,63.54
2023-04-17T10:27:35.920Z,63.90
2023-04-17T10:30:03.898Z,63.23
2023-04-17T10:32:32.276Z,63.03
2023-04-17T10:35:00.659Z,61.63
2023-04-17T10:37:46.773Z,62.19
2023-04-17T10:40:20.399Z,62.06
2023-04-17T10:43:06.257Z,61.30
2023-04-17T10:45:53.562Z,60.24
2023-04-17T10:48:30.890Z,58.55
2023-04-17T10:50:58.576Z,56.67
2023-04-17T10:53:38.065Z,57.02
2023-04-17T10:56:05.564Z,57.99
2023-04-17T10:58:32.933Z,55.95
2023-04-17T11:01:03.450Z,55.48
2023-04-17T11:03:31.075Z,55.13
2023-04-17T11:05:58.670Z,55.53
2023-04-17T11:08:26.551Z,55.90
2023-04-17T11:10:56.615Z,56.04
2023-04-17T11:13:24.086Z,57.46
2023-04-17T11:15:52.341Z,56.64
2023-04-17T11:18:21.001Z,57.36
2023-04-17T11:20:49.650Z,57.51
2023-04-17T11:23:17.508Z,56.33
2023-04-17T11:25:45.098Z,56.29
2023-04-17T11:28:13.830Z,55.75
2023-04-17T11:30:44.239Z,52.98
2023-04-17T11:33:15.928Z,51.79
2023-04-17T11:35:43.676Z,50.57
2023-04-17T11:38:17.317Z,49.94
2023-04-17T11:40:45.744Z,50.15
2023-04-17T11:43:13.653Z,49.95
2023-04-17T11:45:42.089Z,50.00
2023-04-17T11:48:12.993Z,51.26
2023-04-17T11:50:41.063Z,50.30
2023-04-17T11:53:08.377Z,49.78
2023-04-17T11:55:35.977Z,49.08
2023-04-17T11:58:05.878Z,48.28
2023-04-17T12:00:33.816Z,48.95
2023-04-17T12:03:01.677Z,49.58
2023-04-17T12:05:29.753Z,48.67
2023-04-17T12:08:15.911Z,47.57
2023-04-17T12:10:43.730Z,46.79
2023-04-17T12:13:11.334Z,46.05
2023-04-17T12:15:38.833Z,45.68
2023-04-17T12:18:08.476Z,45.71
2023-04-17T12:20:36.341Z,45.74
2023-04-17T12:23:04.055Z,45.84
2023-04-17T12:25:31.759Z,44.70
2023-04-17T12:27:59.234Z,44.36
2023-04-17T12:30:26.911Z,43.98
2023-04-17T12:32:54.616Z,44.64
2023-04-17T12:35:22.285Z,44.24
2023-04-17T12:37:51.159Z,43.28
2023-04-17T12:40:18.946Z,43.88
2023-04-17T12:42:49.620Z,44.72
2023-04-17T12:45:17.339Z,45.52
2023-04-17T12:47:44.715Z,45.17
2023-04-17T12:50:12.193Z,44.03
2023-04-17T12:52:40.125Z,43.74
2023-04-17T12:55:07.750Z,44.06
2023-04-17T12:57:36.287Z,43.59
2023-04-17T13:00:06.070Z,44.01
2023-04-17T13:02:34.221Z,43.42
2023-04-17T13:05:02.367Z,43.52
2023-04-17T13:07:30.251Z,44.05
2023-04-17T13:09:57.748Z,43.83
2023-04-17T13:12:25.558Z,43.95
2023-04-17T13:14:53.124Z,43.62
2023-04-17T13:17:21.236Z,43.34
2023-04-17T13:19:48.624Z,42.87
2023-04-17T13:22:17.421Z,42.12
2023-04-17T13:24:44.908Z,42.30
2023-04-17T13:27:12.153Z,42.34
2023-04-17T13:29:39.489Z,43.18
2023-04-17T13:32:06.889Z,43.49
2023-04-17T13:34:34.011Z,42.85
2023-04-17T13:37:01.146Z,42.78
2023-04-17T13:39:28.643Z,43.03
2023-04-17T13:41:57.930Z,43.41
2023-04-17T13:44:25.270Z,44.31
2023-04-17T13:46:52.907Z,45.08
2023-04-17T13:49:20.788Z,44.49
2023-04-17T13:51:48.236Z,44.61
2023-04-17T13:54:16.049Z,44.59
2023-04-17T13:56:45.275Z,45.12
2023-04-17T13:59:12.888Z,44.09
2023-04-17T14:01:40.902Z,44.65
2023-04-17T14:04:09.090Z,44.82
2023-04-17T14:06:36.860Z,44.77
2023-04-17T14:09:07.314Z,44.78
2023-04-17T14:11:34.696Z,44.39
2023-04-17T14:14:01.926Z,44.23
2023-04-17T14:16:29.486Z,44.04
2023-04-17T14:18:59.461Z,43.75
2023-04-17T14:21:32.516Z,43.55
2023-04-17T14:23:59.932Z,42.89
2023-04-17T14:26:27.233Z,43.30
2023-04-17T14:28:54.846Z,43.70
2023-04-17T14:31:22.693Z,43.92
2023-04-17T14:33:50.261Z,43.97
2023-04-17T14:36:17.593Z,44.17
2023-04-17T14:38:48.926Z,43.78
2023-04-17T14:41:16.577Z,44.12
2023-04-17T14:43:44.238Z,43.86
2023-04-17T14:46:11.781Z,44.49
2023-04-17T14:48:54.075Z,44.98
2023-04-17T14:51:24.211Z,46.02
2023-04-17T14:53:52.931Z,46.70
2023-04-17T14:56:21.356Z,46.57
2023-04-17T14:58:49.043Z,47.03
2023-04-17T15:01:16.358Z,46.89
2023-04-17T15:03:47.457Z,47.46
2023-04-17T15:06:16.224Z,47.87
2023-04-17T15:08:43.793Z,47.24
2023-04-17T15:11:11.290Z,47.15
2023-04-17T15:13:41.588Z,47.40
2023-04-17T15:16:09.787Z,47.26
2023-04-17T15:18:39.072Z,47.32
2023-04-17T15:21:06.790Z,47.09
2023-04-17T15:23:35.334Z,47.92
2023-04-17T15:26:02.644Z,48.38
2023-04-17T15:28:33.730Z,48.12
2023-04-17T15:31:03.777Z,47.95
2023-04-17T15:33:32.840Z,47.96
2023-04-17T15:36:00.964Z,47.85
2023-04-17T15:38:28.498Z,47.71
2023-04-17T15:40:55.979Z,48.35
2023-04-17T15:43:23.617Z,48.45
2023-04-17T15:45:51.118Z,48.49
2023-04-17T15:48:18.652Z,49.24
2023-04-17T15:50:46.102Z,49.64
2023-04-17T15:53:13.504Z,49.97
2023-04-17T15:55:40.878Z,50.33
2023-04-17T15:58:08.227Z,50.63
2023-04-17T16:00:37.179Z,50.28
2023-04-17T16:03:07.341Z,50.77
2023-04-17T16:05:35.101Z,51.46
2023-04-17T16:08:02.518Z,51.96
2023-04-17T16:10:29.926Z,52.31
2023-04-17T16:12:57.826Z,52.70
2023-04-17T16:15:25.182Z,52.94
2023-04-17T16:17:52.733Z,53.56
2023-04-17T16:20:20.184Z,53.97
2023-04-17T16:22:47.593Z,54.18
2023-04-17T16:25:14.964Z,54.13
2023-04-17T16:27:42.426Z,54.66
2023-04-17T16:30:10.479Z,54.39
2023-04-17T16:32:38.067Z,55.59
2023-04-17T16:35:06.257Z,55.53
2023-04-17T16:37:34.102Z,56.03
2023-04-17T16:40:04.501Z,56.80
2023-04-17T16:42:32.768Z,56.66
2023-04-17T16:45:00.249Z,57.06
2023-04-17T16:47:30.928Z,56.93
2023-04-17T16:49:58.616Z,57.46
2023-04-17T16:52:26.210Z,58.20
2023-04-17T16:54:53.597Z,58.23
2023-04-17T16:57:21.478Z,58.54
2023-04-17T16:59:48.911Z,58.72
2023-04-17T17:02:16.373Z,59.21
2023-04-17T17:04:45.618Z,59.56
2023-04-17T17:07:13.039Z,59.86
2023-04-17T17:09:40.442Z,60.27
2023-04-17T17:12:07.988Z,60.63
2023-04-17T17:14:36.496Z,61.33
2023-04-17T17:17:03.768Z,61.62
2023-04-17T17:19:32.327Z,62.05
2023-04-17T17:21:59.727Z,62.38
2023-04-17T17:24:26.984Z,62.93
2023-04-17T17:26:54.439Z,63.68
2023-04-17T17:29:21.795Z,64.10
2023-04-17T17:31:49.326Z,64.69
2023-04-17T17:34:26.130Z,65.05
2023-04-17T17:36:54.695Z,65.75
2023-04-17T17:39:22.496Z,66.07
2023-04-17T17:41:49.989Z,66.01
2023-04-17T17:44:17.407Z,66.37
2023-04-17T17:46:44.992Z,66.75
2023-04-17T17:49:12.682Z,67.28
2023-04-17T17:51:40.235Z,66.97
2023-04-17T17:54:07.715Z,67.23
2023-04-17T17:56:35.331Z,67.67
2023-04-17T17:59:02.832Z,67.26
2023-04-17T18:01:30.771Z,67.67
2023-04-17T18:03:59.061Z,68.24
2023-04-17T18:06:27.621Z,68.71
2023-04-17T18:08:55.260Z,68.95
2023-04-17T18:11:24.771Z,69.65
2023-04-17T18:13:52.425Z,69.70
2023-04-17T18:16:21.277Z,70.06
2023-04-17T18:18:49.605Z,70.02
2023-04-17T18:21:17.117Z,70.34
2023-04-17T18:23:44.894Z,70.66
2023-04-17T18:26:12.802Z,70.98
2023-04-17T18:28:40.569Z,70.55
2023-04-17T18:31:08.189Z,70.90
2023-04-17T18:33:36.054Z,70.95
2023-04-17T18:36:04.523Z,70.65
2023-04-17T18:38:33.161Z,71.21
2023-04-17T18:41:01.056Z,71.46
2023-04-17T18:43:29.027Z,71.40
2023-04-17T18:45:56.460Z,71.16
2023-04-17T18:48:24.208Z,71.20
2023-04-17T18:50:51.867Z,71.36
2023-04-17T18:53:19.544Z,71.13
2023-04-17T18:55:47.039Z,71.04
2023-04-17T18:58:14.683Z,71.22
2023-04-17T19:00:42.074Z,71.64
2023-04-17T19:03:10.072Z,71.72
2023-04-17T19:05:37.959Z,71.98
2023-04-17T19:08:05.674Z,72.24
2023-04-17T19:10:33.416Z,72.30
2023-04-17T19:13:01.123Z,72.11
2023-04-17T19:15:28.938Z,72.13
2023-04-17T19:17:56.813Z,72.36
2023-04-17T19:20:24.326Z,72.63
2023-04-17T19:22:52.146Z,72.99
2023-04-17T19:25:19.527Z,72.30
2023-04-17T19:27:46.813Z,72.58
2023-04-17T19:30:14.038Z,72.73
2023-04-17T19:32:42.025Z,72.80
2023-04-17T19:35:09.316Z,72.42
2023-04-17T19:37:36.646Z,72.89
2023-04-17T19:40:08.627Z,72.51
2023-04-17T19:42:42.108Z,72.56
2023-04-17T19:45:10.490Z,72.53
2023-04-17T19:47:39.924Z,72.63
2023-04-17T19:50:09.698Z,72.73
2023-04-17T19:52:38.170Z,72.28
2023-04-17T19:55:07.152Z,72.44
2023-04-17T19:57:34.909Z,72.34
2023-04-17T20:00:02.457Z,72.60
2023-04-17T20:02:40.685Z,71.89
2023-04-17T20:05:08.902Z,71.40
2023-04-17T20:07:36.900Z,70.75
2023-04-17T20:10:04.967Z,70.65
2023-04-17T20:12:32.734Z,70.64
2023-04-17T20:15:00.059Z,70.09
2023-04-17T20:17:27.461Z,69.67
2023-04-17T20:19:54.900Z,69.36
2023-04-17T20:22:22.259Z,68.72
2023-04-17T20:24:51.320Z,68.33
2023-04-17T20:27:21.226Z,68.17
2023-04-17T20:29:48.470Z,67.76
2023-04-17T20:32:17.544Z,67.80
2023-04-17T20:34:45.159Z,67.33
2023-04-17T20:37:12.365Z,67.39
2023-04-17T20:39:40.771Z,66.92
2023-04-17T20:42:08.015Z,66.72
2023-04-17T20:44:35.360Z,66.73
2023-04-17T20:47:03.204Z,66.42
2023-04-17T20:49:33.772Z,66.60
2023-04-17T20:52:02.780Z,66.22
2023-04-17T20:54:30.547Z,66.58
2023-04-17T20:56:57.904Z,66.45
2023-04-17T20:59:25.211Z,66.20
2023-04-17T21:01:52.823Z,66.37
2023-04-17T21:04:21.825Z,66.21
2023-04-17T21:06:49.319Z,66.11
2023-04-17T21:09:16.789Z,66.05
2023-04-17T21:11:45.087Z,65.89
2023-04-17T21:14:14.986Z,66.61
2023-04-17T21:16:45.168Z,66.67
2023-04-17T21:19:13.633Z,66.67
2023-04-17T21:21:41.089Z,67.01
2023-04-17T21:24:08.685Z,66.53
2023-04-17T21:26:36.009Z,67.15
2023-04-17T21:29:03.217Z,66.97
2023-04-17T21:31:30.613Z,67.43
2023-04-17T21:33:58.329Z,67.43
2023-04-17T21:36:28.292Z,68.09
2023-04-17T21:38:55.817Z,67.85
2023-04-17T21:41:23.121Z,67.91
2023-04-17T21:43:50.817Z,67.47
2023-04-17T21:46:18.182Z,68.11
2023-04-17T21:48:45.492Z,68.00
2023-04-17T21:51:13.071Z,68.50
2023-04-17T21:53:40.363Z,68.18
2023-04-17T21:56:08.241Z,68.32
2023-04-17T21:58:36.037Z,68.07
2023-04-17T22:01:03.431Z,68.35
2023-04-17T22:03:30.871Z,68.26
2023-04-17T22:05:58.114Z,68.66
2023-04-17T22:08:25.983Z,68.88
2023-04-17T22:10:53.242Z,68.87
2023-04-17T22:13:21.054Z,69.03
2023-04-17T22:15:48.614Z,69.16
2023-04-17T22:18:16.187Z,69.23
2023-04-17T22:20:43.539Z,69.51
2023-04-17T22:23:11.069Z,69.61
2023-04-17T22:25:38.268Z,69.31
2023-04-17T22:28:05.570Z,69.13
2023-04-17T22:30:33.014Z,69.02
2023-04-17T22:33:00.332Z,69.22
2023-04-17T22:35:27.585Z,69.39
2023-04-17T22:37:54.884Z,69.76
2023-04-17T22:40:22.119Z,69.65
2023-04-17T22:42:50.146Z,69.66
2023-04-17T22:45:17.572Z,69.79
2023-04-17T22:47:45.029Z,69.97
2023-04-17T22:50:13.965Z,70.52
2023-04-17T22:52:41.412Z,70.63
2023-04-17T22:55:09.507Z,70.55
2023-04-17T22:57:36.887Z,71.11
2023-04-17T23:00:06.168Z,71.58
2023-04-17T23:02:33.784Z,71.66
2023-04-17T23:05:01.059Z,71.80
2023-04-17T23:07:28.849Z,72.22
2023-04-17T23:09:56.208Z,72.21
2023-04-17T23:12:24.620Z,72.58
2023-04-17T23:14:51.967Z,72.55
2023-04-17T23:17:19.228Z,72.88
2023-04-17T23:19:46.537Z,72.85
2023-04-17T23:22:14.003Z,73.16
2023-04-17T23:24:41.339Z,73.07
2023-04-17T23:27:08.895Z,73.04
2023-04-17T23:29:36.596Z,73.34
2023-04-17T23:32:04.278Z,73.51
2023-04-17T23:34:32.108Z,73.31
2023-04-17T23:36:59.698Z,73.86
2023-04-17T23:39:26.995Z,73.68
2023-04-17T23:41:57.472Z,73.83
2023-04-17T23:44:24.914Z,74.11
2023-04-17T23:46:52.429Z,74.13
2023-04-17T23:49:20.408Z,74.30
2023-04-17T23:51:47.841Z,74.44
2023-04-17T23:54:15.512Z,74.61
2023-04-17T23:56:43.595Z,74.76
2023-04-17T23:59:11.221Z,74.89
